Kanab, UT (84741)

5:35 PM MST on December 28, 2014 (GMT -0700)
RAWS TELEGRAPH FLAT UT US | Change Station
CLOSE
Current Station
Personal Weather Station
Location: Kanab, UT
Elevation: 5459 ft
Nearby Weather Stations

Elev 5459 ft 37.19 °N, 112.03 °W | Updated 38 minutes ago

Clear
Clear
36 °F
Feels Like 25 °F
N
20
Wind Variable Wind from WSW
Gusts 31.0 mph

Today
High -- | Low -- °F
--% Chance of Precip.
Yesterday
High -- | Low -- °F
Precip. -- in
7:41 AM 5:19 PM
First Quarter, 53% visible
Pressure 30.09 in
Visibility 10.0 miles
Clouds Clear
Windchill 25 °F
Dew Point 5 °F
Humidity 27%
Rainfall 0.00 in
Snow Depth Not available.
UV 0 out of 12
Pollen .30 out of 12
Air Quality Not available.
Flu Activity Not available.
METAR KPGA 282353Z AUTO 00000KT 10SM CLR 03/M13 A3005 RMK AO2 SLP188 T00331128 10050 20000 56015 TSNO

More Conditions Fewer Conditions

Pressure 30.09 in
Visibility 10.0 miles
Clouds Clear
Windchill 25 °F
Dew Point 5 °F
Humidity 27%
Rainfall 0.00 in
Snow Depth Not available.
UV 0 out of 12
Pollen .30 out of 12
Air Quality Not available.
Flu Activity Not available.
METAR KPGA 282353Z AUTO 00000KT 10SM CLR 03/M13 A3005 RMK AO2 SLP188 T00331128 10050 20000 56015 TSNO

More Conditions Fewer Conditions

10-Day Weather Forecast

Almanac

Astronomy

Dec. 28, 2014 Rise Set
Actual Time
Civil Twilight
Nautical Twilight
Astronomical Twilight
Moon
Length of Visible Light
Length of Day
Tomorrow will be .
, % of the Moon is Illuminated

Today's Extremes

State Highs State Lows

Community

WunderPhotos

Upload Photos

1,781,472 photos uploaded!

WunderBlogs® & News

Nearby

Air Quality

  Air Quality AQ Index Pollutant
Not available.

Snow Depth

Station Depth Elevation

Earthquake Activity

City Distance Mag. Time & Date
Minimum magnitude displayed is 2.5.

Coastal Water Temperatures

Place Temperature

Nearby Weather Stations